Terminal Aerodrome Forecast
Issued by NWS Upton, NY

Home | Current Version | Previous Version | Text Only | Print | Product List | Glossary On
Versions: 1 2 3 4 5 6 7 8 9 10 11 12 13 14 15 16 17 18 19 20 21 22 23 24 25 26 27 28 29 30 31 32 33 34
000
FTUS41 KOKX 161732
TAFISP
TAF
KISP 161732Z 1618/1718 23006KT P6SM BKN250
     FM170300 24004KT P6SM OVC080
     FM171200 VRB03KT P6SM SCT020 OVC050
     FM171400 14005KT P6SM SCT007 BKN015 OVC040=

USA.gov is the U.S. government's official web portal to all federal, state and local government web resources and services.